LIRS/GRS METAR and TAF weather

Enter ICAO airport designator
Station Type Date Time Source
LIRS METAR 2022/08/13 12:55 UTC NOAA

LIRS 131255Z 25012KT 9999 SCT040 29/17 Q1011


Station Type Date Time Source
LIRS Decoded METAR 2022/08/13 12:55 UTC NOAA

Grosseto, Italy (LIRS) 42-45N 011-04E 7M
Aug 13, 2022 - 08:55 AM EDT / 2022.08.13 1255 UTC
Wind: from the WSW (250 degrees) at 14 MPH (12 KT):0
Visibility: greater than 7 mile(s):0
Sky conditions: partly cloudy
Temperature: 84 F (29 C)
Dew Point: 62 F (17 C)
Relative Humidity: 48%
Pressure (altimeter): 29.85 in. Hg (1011 hPa)
ob: LIRS 131255Z 25012KT 9999 SCT040 29/17 Q1011
cycle: 13

Station Type Date Time Source
LIRS TAF 2018/06/29 09:24 UTC NOAA

TAF TAF LIRS 290800Z 2909/2921 VRB03KT 9999 FEW030
BECMG 2911/2913 24015KT

Example: see airport list